createdAt,value
2022-11-10T00:02:05.467Z,99974.53
2022-11-10T00:04:33.067Z,99984.22
2022-11-10T00:07:00.766Z,99985.91
2022-11-10T00:09:28.826Z,100000.13
2022-11-10T00:11:56.467Z,99994.63
2022-11-10T00:14:41.754Z,99997.28
2022-11-10T00:17:10.272Z,99995.59
2022-11-10T00:19:38.286Z,100000.25
2022-11-10T00:22:05.954Z,100004.59
2022-11-10T00:24:33.540Z,100002.91
2022-11-10T00:27:01.131Z,100007.41
2022-11-10T00:29:29.262Z,100010.22
2022-11-10T00:31:57.364Z,100006.81
2022-11-10T00:34:25.255Z,100014.13
2022-11-10T00:36:53.161Z,100017.06
2022-11-10T00:39:20.746Z,100013.66
2022-11-10T00:41:49.886Z,100010.41
2022-11-10T00:44:17.833Z,100015.13
2022-11-10T00:46:45.937Z,100025.13
2022-11-10T00:49:13.656Z,100022.72
2022-11-10T00:51:41.248Z,100026.50
2022-11-10T00:54:09.146Z,100040.81
2022-11-10T00:56:37.162Z,100035.59
2022-11-10T00:59:05.075Z,100037.56
2022-11-10T01:01:32.740Z,100038.38
2022-11-10T01:04:00.330Z,100031.22
2022-11-10T01:06:27.937Z,100041.91
2022-11-10T01:08:55.875Z,100037.56
2022-11-10T01:11:23.445Z,100036.84
2022-11-10T01:13:51.017Z,100038.06
2022-11-10T01:16:19.837Z,100042.53
2022-11-10T01:18:47.924Z,100038.91
2022-11-10T01:21:16.394Z,100035.28
2022-11-10T01:23:43.938Z,100050.41
2022-11-10T01:26:11.496Z,100060.00
2022-11-10T01:28:39.087Z,100061.81
2022-11-10T01:31:06.666Z,100054.41
2022-11-10T01:33:34.241Z,100056.72
2022-11-10T01:36:01.879Z,100058.13
2022-11-10T01:38:29.544Z,100067.72
2022-11-10T01:40:57.113Z,100077.28
2022-11-10T01:43:27.743Z,100082.34
2022-11-10T01:45:55.491Z,100075.91
2022-11-10T01:48:23.102Z,100082.09
2022-11-10T01:50:50.745Z,100068.03
2022-11-10T01:53:18.408Z,100077.13
2022-11-10T01:55:46.206Z,100078.25
2022-11-10T01:58:14.124Z,100081.16
2022-11-10T02:00:41.788Z,100073.44
2022-11-10T02:03:09.343Z,100090.28
2022-11-10T02:05:37.234Z,100075.00
2022-11-10T02:08:06.471Z,100085.41
2022-11-10T02:10:34.457Z,100089.88
2022-11-10T02:13:05.977Z,100097.19
2022-11-10T02:18:37.544Z,100103.78
2022-11-10T02:21:05.465Z,100108.25
2022-11-10T02:23:33.643Z,100103.88
2022-11-10T02:26:01.547Z,100100.34
2022-11-10T02:28:29.117Z,100111.19
2022-11-10T02:30:56.696Z,100114.97
2022-11-10T02:33:24.565Z,100113.38
2022-11-10T02:35:52.235Z,100119.22
2022-11-10T02:38:19.907Z,100119.59
2022-11-10T02:40:47.477Z,100112.09
2022-11-10T02:43:15.119Z,100116.13
2022-11-10T02:45:45.677Z,100123.53
2022-11-10T02:48:13.539Z,100114.81
2022-11-10T02:50:41.083Z,100120.13
2022-11-10T02:53:08.640Z,100118.44
2022-11-10T02:55:37.538Z,100118.44
2022-11-10T02:58:05.129Z,100118.44
2022-11-10T03:00:32.655Z,100129.13
2022-11-10T03:03:01.428Z,100136.25
2022-11-10T03:05:28.964Z,100137.22
2022-11-10T03:07:56.681Z,100131.19
2022-11-10T03:10:24.601Z,100141.09
2022-11-10T03:12:52.165Z,100145.63
2022-11-10T03:15:19.674Z,100152.91
2022-11-10T03:17:47.222Z,100155.69
2022-11-10T03:20:15.223Z,100165.38
2022-11-10T03:22:43.145Z,100156.53
2022-11-10T03:25:10.722Z,100152.16
2022-11-10T03:27:38.251Z,100154.81
2022-11-10T03:30:05.778Z,100145.88
2022-11-10T03:32:33.663Z,100139.69
2022-11-10T03:35:01.178Z,100145.88
2022-11-10T03:37:28.727Z,100146.69
2022-11-10T03:39:56.270Z,100143.91
2022-11-10T03:42:23.823Z,100152.91
2022-11-10T03:44:52.501Z,100156.78
2022-11-10T03:47:20.223Z,100162.31
2022-11-10T03:49:47.741Z,100168.75
2022-11-10T03:52:15.337Z,100174.19
2022-11-10T03:54:43.342Z,100181.38
2022-11-10T03:57:12.627Z,100180.50
2022-11-10T03:59:40.584Z,100186.69
2022-11-10T04:02:08.264Z,100190.34
2022-11-10T04:04:53.393Z,100184.16
2022-11-10T04:07:38.461Z,100193.13
2022-11-10T04:10:06.371Z,100188.75
2022-11-10T04:12:51.498Z,100197.75
2022-11-10T04:15:36.572Z,100202.31
2022-11-10T04:18:17.920Z,100212.28
2022-11-10T04:20:46.084Z,100214.94
2022-11-10T04:23:29.095Z,100232.88
2022-11-10T04:26:14.233Z,100230.31
2022-11-10T04:28:41.777Z,100240.13
2022-11-10T04:31:10.723Z,100244.53
2022-11-10T04:33:38.298Z,100243.53
2022-11-10T04:36:06.212Z,100247.91
2022-11-10T04:38:33.817Z,100260.97
2022-11-10T04:41:01.390Z,100250.94
2022-11-10T04:43:30.684Z,100257.13
2022-11-10T04:45:58.282Z,100257.84
2022-11-10T04:48:25.858Z,100253.13
2022-11-10T04:50:53.458Z,100270.63
2022-11-10T04:53:21.343Z,100280.06
2022-11-10T04:55:49.511Z,100271.72
2022-11-10T04:58:17.414Z,100290.88
2022-11-10T05:00:45.116Z,100294.88
2022-11-10T05:03:12.715Z,100291.00
2022-11-10T05:05:40.319Z,100284.56
2022-11-10T05:08:08.193Z,100302.28
2022-11-10T05:10:35.788Z,100298.75
2022-11-10T05:13:03.440Z,100305.28
2022-11-10T05:15:31.000Z,100299.38
2022-11-10T05:17:58.567Z,100302.53
2022-11-10T05:20:29.702Z,100302.13
2022-11-10T05:23:14.713Z,100303.56
2022-11-10T05:25:42.371Z,100309.38
2022-11-10T05:28:09.938Z,100307.19
2022-11-10T05:30:37.903Z,100312.00
2022-11-10T05:33:05.591Z,100321.34
2022-11-10T05:35:33.200Z,100321.44
2022-11-10T05:38:00.789Z,100319.75
2022-11-10T05:40:28.402Z,100329.81
2022-11-10T05:42:57.287Z,100341.31
2022-11-10T05:45:24.896Z,100338.03
2022-11-10T05:47:52.499Z,100341.78
2022-11-10T05:50:20.063Z,100348.91
2022-11-10T05:52:50.148Z,100359.59
2022-11-10T05:55:19.118Z,100357.16
2022-11-10T05:57:46.706Z,100354.50
2022-11-10T06:00:14.323Z,100372.28
2022-11-10T06:02:42.254Z,100375.19
2022-11-10T06:05:09.846Z,100376.16
2022-11-10T06:07:37.492Z,100382.34
2022-11-10T06:10:05.187Z,100378.72
2022-11-10T06:12:32.789Z,100380.44
2022-11-10T06:15:00.566Z,100370.75
2022-11-10T06:17:28.243Z,100386.84
2022-11-10T06:19:56.783Z,100391.44
2022-11-10T06:22:24.403Z,100389.84
2022-11-10T06:24:52.460Z,100392.50
2022-11-10T06:27:20.123Z,100401.97
2022-11-10T06:29:47.704Z,100404.28
2022-11-10T06:32:17.661Z,100409.41
2022-11-10T06:34:45.308Z,100419.72
2022-11-10T06:37:12.915Z,100412.56
2022-11-10T06:39:40.675Z,100421.31
2022-11-10T06:42:08.343Z,100422.38
2022-11-10T06:44:37.333Z,100425.25
2022-11-10T06:47:05.282Z,100426.47
2022-11-10T06:49:32.940Z,100431.06
2022-11-10T06:52:00.607Z,100431.06
2022-11-10T06:54:28.311Z,100443.53
2022-11-10T06:56:56.209Z,100444.59
2022-11-10T06:59:23.865Z,100452.59
2022-11-10T07:01:51.690Z,100457.22
2022-11-10T07:04:20.775Z,100452.75
2022-11-10T07:06:48.820Z,100465.31
2022-11-10T07:09:17.115Z,100465.31
2022-11-10T07:11:44.786Z,100467.13
2022-11-10T07:14:12.396Z,100463.59
2022-11-10T07:16:40.129Z,100470.78
2022-11-10T07:19:07.836Z,100474.28
2022-11-10T07:21:35.841Z,100473.19
2022-11-10T07:24:03.589Z,100483.41
2022-11-10T07:26:31.258Z,100478.72
2022-11-10T07:28:59.208Z,100474.97
2022-11-10T07:31:27.007Z,100481.03
2022-11-10T07:33:56.431Z,100485.50
2022-11-10T07:36:24.282Z,100489.75
2022-11-10T07:38:51.946Z,100494.03
2022-11-10T07:41:19.624Z,100491.88
2022-11-10T07:43:47.464Z,100504.88
2022-11-10T07:46:16.620Z,100504.53
2022-11-10T07:48:44.404Z,100500.53
2022-11-10T07:51:12.402Z,100507.38
2022-11-10T07:53:41.590Z,100503.53
2022-11-10T07:56:09.788Z,100514.81
2022-11-10T07:58:38.033Z,100506.47
2022-11-10T08:01:05.989Z,100511.44
2022-11-10T08:03:33.923Z,100523.50
2022-11-10T08:06:01.740Z,100531.16
2022-11-10T08:08:30.046Z,100543.69
2022-11-10T08:10:58.565Z,100541.91
2022-11-10T08:13:26.610Z,100545.47
2022-11-10T08:15:54.560Z,100552.88
2022-11-10T08:18:22.260Z,100546.56
2022-11-10T08:20:50.159Z,100552.00
2022-11-10T08:23:20.097Z,100559.09
2022-11-10T08:25:48.224Z,100561.75
2022-11-10T08:28:15.982Z,100567.72
2022-11-10T08:30:43.930Z,100572.44
2022-11-10T08:33:11.770Z,100575.38
2022-11-10T08:35:39.967Z,100578.91
2022-11-10T08:38:09.643Z,100586.31
2022-11-10T08:40:37.754Z,100593.25
2022-11-10T08:43:07.517Z,100591.41
2022-11-10T08:45:36.040Z,100592.88
2022-11-10T08:48:04.333Z,100589.88
2022-11-10T08:50:32.182Z,100587.81
2022-11-10T08:53:00.073Z,100601.03
2022-11-10T08:55:27.957Z,100596.28
2022-11-10T08:57:56.107Z,100605.78
2022-11-10T09:00:26.369Z,100609.19
2022-11-10T09:02:54.213Z,100608.22
2022-11-10T09:05:22.002Z,100623.06
2022-11-10T09:07:50.000Z,100619.03
2022-11-10T09:10:17.726Z,100625.72
2022-11-10T09:12:46.828Z,100625.50
2022-11-10T09:15:14.821Z,100635.72
2022-11-10T09:17:42.422Z,100638.91
2022-11-10T09:20:10.526Z,100635.88
2022-11-10T09:22:38.530Z,100641.59
2022-11-10T09:25:06.699Z,100629.56
2022-11-10T09:27:34.504Z,100635.28
2022-11-10T09:30:02.488Z,100642.81
2022-11-10T09:32:32.298Z,100657.41
2022-11-10T09:35:00.015Z,100640.88
2022-11-10T09:37:28.571Z,100635.50
2022-11-10T09:40:01.042Z,100643.53
2022-11-10T09:42:29.566Z,100642.41
2022-11-10T09:44:57.286Z,100656.97
2022-11-10T09:47:50.586Z,100650.69
2022-11-10T09:50:12.837Z,100642.84
2022-11-10T09:52:40.521Z,100648.38
2022-11-10T09:55:08.308Z,100656.31
2022-11-10T09:57:36.232Z,100658.38
2022-11-10T10:00:04.357Z,100653.31
2022-11-10T10:02:36.545Z,100657.16
2022-11-10T10:05:04.524Z,100657.66
2022-11-10T10:07:32.640Z,100663.03
2022-11-10T10:10:00.499Z,100674.56
2022-11-10T10:12:28.446Z,100667.44
2022-11-10T10:14:59.955Z,100680.19
2022-11-10T10:17:27.699Z,100668.03
2022-11-10T10:19:55.749Z,100673.22
2022-11-10T10:22:23.978Z,100667.34
2022-11-10T10:24:53.452Z,100663.97
2022-11-10T10:27:22.008Z,100662.97
2022-11-10T10:29:50.520Z,100676.66
2022-11-10T10:32:18.355Z,100673.25
2022-11-10T10:34:46.393Z,100675.78
2022-11-10T10:37:14.073Z,100672.03
2022-11-10T10:39:41.963Z,100676.38
2022-11-10T10:42:09.864Z,100667.94
2022-11-10T10:44:37.718Z,100677.13
2022-11-10T10:47:05.769Z,100680.97
2022-11-10T10:49:34.308Z,100688.03
2022-11-10T10:52:04.182Z,100698.00
2022-11-10T10:54:31.981Z,100681.00
2022-11-10T10:56:59.960Z,100687.34
2022-11-10T10:59:27.838Z,100673.88
2022-11-10T11:01:55.963Z,100677.00
2022-11-10T11:04:25.546Z,100681.50
2022-11-10T11:06:53.555Z,100679.31
2022-11-10T11:09:21.331Z,100675.44
2022-11-10T11:11:49.234Z,100687.97
2022-11-10T11:14:17.232Z,100707.88
2022-11-10T11:16:45.999Z,100699.25
2022-11-10T11:19:13.940Z,100702.91
2022-11-10T11:21:41.774Z,100715.81
2022-11-10T11:24:09.657Z,100711.28
2022-11-10T11:26:37.648Z,100716.06
2022-11-10T11:29:06.161Z,100716.63
2022-11-10T11:31:37.551Z,100721.81
2022-11-10T11:34:08.373Z,100723.50
2022-11-10T11:36:36.239Z,100721.34
2022-11-10T11:39:04.141Z,100719.94
2022-11-10T11:41:33.944Z,100725.53
2022-11-10T11:44:01.749Z,100722.16
2022-11-10T11:46:29.667Z,100721.91
2022-11-10T11:48:57.535Z,100722.78
2022-11-10T11:51:25.484Z,100720.78
2022-11-10T11:53:53.471Z,100738.47
2022-11-10T11:56:21.375Z,100743.75
2022-11-10T11:58:49.320Z,100739.53
2022-11-10T12:01:17.099Z,100744.91
2022-11-10T12:03:47.489Z,100738.97
2022-11-10T12:06:15.233Z,100738.97
2022-11-10T12:08:43.184Z,100748.19
2022-11-10T12:11:11.068Z,100745.88
2022-11-10T12:13:39.104Z,100736.13
2022-11-10T12:16:06.943Z,100746.03
2022-11-10T12:18:38.518Z,100752.25
2022-11-10T12:21:06.336Z,100749.56
2022-11-10T12:23:34.766Z,100743.19
2022-11-10T12:26:02.783Z,100748.81
2022-11-10T12:28:30.924Z,100749.34
2022-11-10T12:31:01.749Z,100757.78
2022-11-10T12:33:30.019Z,100756.03
2022-11-10T12:35:58.129Z,100760.22
2022-11-10T12:38:26.405Z,100757.38
2022-11-10T12:40:54.437Z,100757.66
2022-11-10T12:43:22.972Z,100744.94
2022-11-10T12:45:50.963Z,100756.56
2022-11-10T12:48:19.051Z,100759.41
2022-11-10T12:50:46.970Z,100753.81
2022-11-10T12:53:14.849Z,100744.69
2022-11-10T12:55:44.787Z,100750.09
2022-11-10T12:58:12.867Z,100750.84
2022-11-10T13:00:40.712Z,100747.88
2022-11-10T13:03:08.730Z,100741.28
2022-11-10T13:05:36.602Z,100753.34
2022-11-10T13:08:06.088Z,100748.84
2022-11-10T13:10:33.881Z,100759.59
2022-11-10T13:13:01.792Z,100765.25
2022-11-10T13:15:29.783Z,100761.69
2022-11-10T13:17:57.841Z,100761.28
2022-11-10T13:20:31.441Z,100775.88
2022-11-10T13:22:59.597Z,100769.88
2022-11-10T13:25:27.527Z,100775.38
2022-11-10T13:27:55.327Z,100771.03
2022-11-10T13:30:23.764Z,100783.47
2022-11-10T13:32:51.945Z,100786.44
2022-11-10T13:35:19.697Z,100788.88
2022-11-10T13:37:53.903Z,100785.75
2022-11-10T13:40:21.691Z,100785.91
2022-11-10T13:42:49.516Z,100783.78
2022-11-10T13:45:18.286Z,100777.00
2022-11-10T13:47:46.311Z,100774.00
2022-11-10T13:50:14.599Z,100774.13
2022-11-10T13:52:42.448Z,100782.22
2022-11-10T13:55:15.707Z,100780.66
2022-11-10T13:57:45.384Z,100777.25
2022-11-10T14:00:13.206Z,100776.72
2022-11-10T14:02:41.403Z,100773.13
2022-11-10T14:05:09.452Z,100768.69
2022-11-10T14:07:37.246Z,100767.28
2022-11-10T14:10:07.057Z,100770.94
2022-11-10T14:12:35.270Z,100773.53
2022-11-10T14:15:03.117Z,100772.94
2022-11-10T14:17:30.985Z,100766.69
2022-11-10T14:19:59.035Z,100768.78
2022-11-10T14:22:28.492Z,100776.44
2022-11-10T14:24:56.560Z,100778.53
2022-11-10T14:27:24.535Z,100782.91
2022-11-10T14:29:52.490Z,100783.25
2022-11-10T14:32:20.244Z,100782.91
2022-11-10T14:34:49.853Z,100778.34
2022-11-10T14:37:17.681Z,100776.59
2022-11-10T14:39:45.486Z,100772.91
2022-11-10T14:42:13.447Z,100767.00
2022-11-10T14:44:41.254Z,100770.91
2022-11-10T14:47:12.930Z,100790.28
2022-11-10T14:49:40.947Z,100789.47
2022-11-10T14:52:08.769Z,100792.13
2022-11-10T14:54:36.627Z,100798.34
2022-11-10T14:57:04.771Z,100803.34
2022-11-10T14:59:33.136Z,100794.50
2022-11-10T15:02:01.030Z,100794.25
2022-11-10T15:04:29.081Z,100801.91
2022-11-10T15:06:57.094Z,100807.69
2022-11-10T15:09:24.938Z,100808.00
2022-11-10T15:11:53.670Z,100810.00
2022-11-10T15:14:21.541Z,100823.47
2022-11-10T15:16:49.504Z,100826.19
2022-11-10T15:19:17.556Z,100838.63
2022-11-10T15:21:45.327Z,100828.78
2022-11-10T15:24:14.368Z,100827.84
2022-11-10T15:26:42.405Z,100818.72
2022-11-10T15:29:10.507Z,100826.53
2022-11-10T15:31:38.518Z,100836.00
2022-11-10T15:34:06.592Z,100831.38
2022-11-10T15:36:35.287Z,100828.47
2022-11-10T15:39:03.306Z,100833.56
2022-11-10T15:41:31.393Z,100838.69
2022-11-10T15:43:59.331Z,100840.13
2022-11-10T15:46:27.129Z,100843.28
2022-11-10T15:48:57.179Z,100843.91
2022-11-10T15:51:26.527Z,100846.06
2022-11-10T15:53:54.548Z,100855.44
2022-11-10T15:56:22.503Z,100848.72
2022-11-10T15:58:50.486Z,100842.00
2022-11-10T16:01:18.797Z,100845.03
2022-11-10T16:03:46.871Z,100841.00
2022-11-10T16:06:14.899Z,100844.28
2022-11-10T16:08:42.615Z,100837.69
2022-11-10T16:11:10.697Z,100843.50
2022-11-10T16:13:42.272Z,100859.19
2022-11-10T16:16:10.261Z,100855.25
2022-11-10T16:18:43.527Z,100861.03
2022-11-10T16:21:11.732Z,100873.97
2022-11-10T16:23:39.627Z,100879.91
2022-11-10T16:26:08.607Z,100879.59
2022-11-10T16:28:36.433Z,100887.97
2022-11-10T16:31:04.470Z,100899.97
2022-11-10T16:33:32.310Z,100901.13
2022-11-10T16:36:01.331Z,100896.84
2022-11-10T16:38:29.673Z,100894.53
2022-11-10T16:40:57.515Z,100896.78
2022-11-10T16:43:25.336Z,100908.53
2022-11-10T16:45:53.304Z,100909.63
2022-11-10T16:48:22.385Z,100907.81
2022-11-10T16:50:50.777Z,100914.00
2022-11-10T16:53:18.764Z,100916.75
2022-11-10T16:55:47.008Z,100925.63
2022-11-10T16:58:14.823Z,100923.94
2022-11-10T17:00:44.595Z,100923.06
2022-11-10T17:03:12.884Z,100925.75
2022-11-10T17:05:40.727Z,100918.69
2022-11-10T17:08:08.852Z,100919.03
2022-11-10T17:10:36.666Z,100928.00
2022-11-10T17:13:05.739Z,100939.75
2022-11-10T17:15:35.890Z,100927.69
2022-11-10T17:18:04.816Z,100932.41
2022-11-10T17:20:32.843Z,100937.97
2022-11-10T17:23:00.883Z,100941.56
2022-11-10T17:25:30.533Z,100949.56
2022-11-10T17:27:58.732Z,100951.50
2022-11-10T17:30:26.695Z,100947.88
2022-11-10T17:33:04.706Z,100948.00
2022-11-10T17:35:39.263Z,100957.72
2022-11-10T17:38:08.824Z,100972.88
2022-11-10T17:40:36.854Z,100975.78
2022-11-10T17:43:04.670Z,100975.03
2022-11-10T17:45:32.551Z,100978.63
2022-11-10T17:48:01.096Z,100976.09
2022-11-10T17:50:29.301Z,100978.75
2022-11-10T17:52:57.268Z,100974.38
2022-11-10T17:55:29.781Z,100977.16
2022-11-10T17:58:01.460Z,100980.88
2022-11-10T18:00:30.654Z,100988.97
2022-11-10T18:02:58.521Z,100981.28
2022-11-10T18:05:26.394Z,100988.56
2022-11-10T18:07:54.481Z,100985.25
2022-11-10T18:10:22.412Z,100978.41
2022-11-10T18:12:50.791Z,100973.06
2022-11-10T18:15:18.789Z,100981.38
2022-11-10T18:17:46.681Z,100979.91
2022-11-10T18:20:14.976Z,100980.00
2022-11-10T18:22:45.483Z,100980.94
2022-11-10T18:25:13.667Z,100982.09
2022-11-10T18:27:41.580Z,100976.03
2022-11-10T18:30:09.564Z,100985.00
2022-11-10T18:32:37.480Z,100986.78
2022-11-10T18:35:06.878Z,100987.66
2022-11-10T18:37:38.853Z,100982.41
2022-11-10T18:40:07.606Z,100986.25
2022-11-10T18:42:36.013Z,100987.31
2022-11-10T18:45:04.089Z,100985.59
2022-11-10T18:47:31.816Z,100978.34
2022-11-10T18:49:59.879Z,100969.56
2022-11-10T18:52:27.902Z,100973.03
2022-11-10T18:54:55.727Z,100979.31
2022-11-10T18:57:23.850Z,100984.72
2022-11-10T18:59:52.486Z,100979.50
2022-11-10T19:02:21.019Z,100985.75
2022-11-10T19:04:53.422Z,101002.72
2022-11-10T19:07:21.568Z,100996.56
2022-11-10T19:09:49.601Z,100993.03
2022-11-10T19:12:21.462Z,100995.81
2022-11-10T19:14:54.769Z,100991.31
2022-11-10T19:17:22.547Z,101001.16
2022-11-10T19:19:56.001Z,101004.66
2022-11-10T19:22:27.948Z,100999.41
2022-11-10T19:25:11.296Z,101000.28
2022-11-10T19:27:39.119Z,101004.00
2022-11-10T19:30:06.908Z,101008.69
2022-11-10T19:32:36.496Z,101005.84
2022-11-10T19:35:05.558Z,101020.09
2022-11-10T19:37:34.536Z,101013.72
2022-11-10T19:40:02.591Z,101012.88
2022-11-10T19:42:30.951Z,101007.72
2022-11-10T19:44:59.298Z,101016.78
2022-11-10T19:47:27.703Z,101009.84
2022-11-10T19:49:55.763Z,101005.56
2022-11-10T19:52:23.597Z,101019.00
2022-11-10T19:54:51.489Z,101013.66
2022-11-10T19:57:19.601Z,101024.34
2022-11-10T19:59:47.884Z,101017.28
2022-11-10T20:02:15.779Z,101005.75
2022-11-10T20:04:57.710Z,101004.94
2022-11-10T20:07:51.325Z,101007.91
2022-11-10T20:10:20.436Z,101021.31
2022-11-10T20:12:48.275Z,101015.25
2022-11-10T20:15:16.262Z,101025.13
2022-11-10T20:17:44.301Z,101014.66
2022-11-10T20:20:12.140Z,101025.56
2022-11-10T20:22:40.815Z,101028.31
2022-11-10T20:25:09.159Z,101035.44
2022-11-10T20:27:37.030Z,101032.97
2022-11-10T20:30:04.986Z,101045.56
2022-11-10T20:32:33.001Z,101042.09
2022-11-10T20:35:01.296Z,101047.66
2022-11-10T20:37:29.173Z,101047.84
2022-11-10T20:39:57.275Z,101036.41
2022-11-10T20:42:25.136Z,101030.16
2022-11-10T20:44:52.998Z,101028.41
2022-11-10T20:47:24.835Z,101038.34
2022-11-10T20:49:52.740Z,101038.53
2022-11-10T20:52:20.680Z,101036.06
2022-11-10T20:54:48.647Z,101032.44
2022-11-10T20:57:16.515Z,101040.41
2022-11-10T20:59:44.865Z,101046.63
2022-11-10T21:02:12.767Z,101046.53
2022-11-10T21:04:43.255Z,101043.97
2022-11-10T21:07:11.212Z,101045.75
2022-11-10T21:09:39.206Z,101047.59
2022-11-10T21:12:24.913Z,101053.75
2022-11-10T21:14:52.967Z,101048.41
2022-11-10T21:17:20.905Z,101051.00
2022-11-10T21:19:48.839Z,101060.69
2022-11-10T21:22:16.707Z,101072.13
2022-11-10T21:24:44.814Z,101074.91
2022-11-10T21:27:13.798Z,101086.50
2022-11-10T21:29:42.542Z,101097.25
2022-11-10T21:32:10.422Z,101088.59
2022-11-10T21:34:38.242Z,101086.88
2022-11-10T21:37:06.576Z,101088.03
2022-11-10T21:39:36.024Z,101091.75
2022-11-10T21:42:03.780Z,101083.09
2022-11-10T21:44:31.756Z,101087.56
2022-11-10T21:46:59.532Z,101083.28
2022-11-10T21:49:27.849Z,101079.84
2022-11-10T21:51:55.994Z,101085.47
2022-11-10T21:54:23.827Z,101088.97
2022-11-10T21:56:51.538Z,101086.31
2022-11-10T21:59:19.958Z,101089.84
2022-11-10T22:01:48.170Z,101093.53
2022-11-10T22:04:17.457Z,101099.84
2022-11-10T22:07:02.514Z,101103.44
2022-11-10T22:09:47.551Z,101100.69
2022-11-10T22:12:33.200Z,101092.88
2022-11-10T22:15:18.305Z,101106.88
2022-11-10T22:18:03.366Z,101105.91
2022-11-10T22:20:31.099Z,101099.84
2022-11-10T22:22:58.833Z,101100.69
2022-11-10T22:25:26.672Z,101098.13
2022-11-10T22:27:54.521Z,101102.69
2022-11-10T22:30:22.267Z,101112.47
2022-11-10T22:32:50.295Z,101109.81
2022-11-10T22:35:32.122Z,101103.66
2022-11-10T22:37:59.918Z,101101.06
2022-11-10T22:40:45.073Z,101104.56
2022-11-10T22:43:29.968Z,101108.84
2022-11-10T22:45:59.887Z,101116.75
2022-11-10T22:48:27.553Z,101110.69
2022-11-10T22:50:55.479Z,101111.63
2022-11-10T22:53:23.680Z,101105.53
2022-11-10T22:55:51.755Z,101107.34
2022-11-10T22:58:21.535Z,101108.31
2022-11-10T23:00:49.175Z,101122.53
2022-11-10T23:03:16.839Z,101124.38
2022-11-10T23:05:44.513Z,101118.28
2022-11-10T23:08:12.096Z,101116.53
2022-11-10T23:10:40.068Z,101098.09
2022-11-10T23:13:07.732Z,101086.56
2022-11-10T23:15:35.654Z,101090.31
2022-11-10T23:18:06.617Z,101103.03
2022-11-10T23:20:34.706Z,101119.22
2022-11-10T23:23:04.125Z,101125.38
2022-11-10T23:25:31.787Z,101124.63
2022-11-10T23:27:59.471Z,101132.69
2022-11-10T23:30:27.109Z,101125.47
2022-11-10T23:32:54.767Z,101119.97
2022-11-10T23:35:23.308Z,101122.63
2022-11-10T23:37:50.892Z,101116.56
2022-11-10T23:40:18.536Z,101112.34
2022-11-10T23:42:46.162Z,101101.91
2022-11-10T23:45:13.825Z,101089.63
2022-11-10T23:47:42.362Z,101082.75
2022-11-10T23:50:10.014Z,101088.94
2022-11-10T23:52:37.619Z,101080.97
2022-11-10T23:55:05.345Z,101094.19
2022-11-10T23:57:33.265Z,101089.69
